createdAt,value
2022-11-19T00:02:13.078Z,99020.50
2022-11-19T00:05:14.605Z,99025.31
2022-11-19T00:08:18.650Z,99020.28
2022-11-19T00:11:42.482Z,98974.97
2022-11-19T00:14:44.016Z,99020.94
2022-11-19T00:17:45.615Z,99024.91
2022-11-19T00:20:47.143Z,99031.25
2022-11-19T00:23:48.694Z,99043.97
2022-11-19T00:26:50.260Z,99039.69
2022-11-19T00:29:51.823Z,99052.03
2022-11-19T00:32:53.374Z,99065.91
2022-11-19T00:35:59.193Z,99067.31
2022-11-19T00:39:00.757Z,99069.44
2022-11-19T00:42:02.387Z,99075.50
2022-11-19T00:45:04.206Z,99078.53
2022-11-19T00:48:05.810Z,99072.97
2022-11-19T00:51:08.626Z,99077.47
2022-11-19T00:54:10.173Z,99088.50
2022-11-19T00:57:11.702Z,99059.62
2022-11-19T01:00:13.801Z,99085.34
2022-11-19T01:03:15.347Z,99094.00
2022-11-19T01:06:19.519Z,99098.00
2022-11-19T01:09:21.634Z,99097.72
2022-11-19T01:12:23.361Z,99096.31
2022-11-19T01:15:24.893Z,99108.13
2022-11-19T01:18:27.789Z,99110.66
2022-11-19T01:21:31.920Z,99128.56
2022-11-19T01:24:33.511Z,99017.91
2022-11-19T01:27:35.061Z,99145.31
2022-11-19T01:30:39.935Z,99148.03
2022-11-19T01:33:41.681Z,99159.03
2022-11-19T01:36:43.200Z,99162.66
2022-11-19T01:39:44.719Z,99168.41
2022-11-19T01:42:53.968Z,99165.19
2022-11-19T01:45:55.483Z,99162.47
2022-11-19T01:49:00.045Z,99167.84
2022-11-19T01:52:02.928Z,99176.09
2022-11-19T01:55:04.833Z,99169.09
2022-11-19T01:58:06.952Z,99175.75
2022-11-19T02:01:09.756Z,99184.44
2022-11-19T02:04:12.382Z,99187.69
2022-11-19T02:07:14.292Z,99198.28
2022-11-19T02:10:16.108Z,99209.81
2022-11-19T02:13:33.656Z,99203.63
2022-11-19T02:16:47.407Z,99217.22
2022-11-19T02:20:22.246Z,99222.47
2022-11-19T02:24:00.966Z,99231.87
2022-11-19T02:27:27.072Z,99234.06
2022-11-19T02:30:37.050Z,99232.53
2022-11-19T02:49:19.435Z,99240.81
2022-11-19T02:52:21.622Z,99240.81
2022-11-19T02:55:23.400Z,99285.53
2022-11-19T02:58:43.598Z,99300.22
2022-11-19T03:02:04.734Z,99311.22
2022-11-19T03:05:10.447Z,99312.03
2022-11-19T03:08:12.027Z,99304.81
2022-11-19T03:11:16.314Z,99300.06
2022-11-19T03:14:43.229Z,99306.03
2022-11-19T03:17:51.985Z,99308.00
2022-11-19T03:21:00.978Z,99307.22
2022-11-19T03:24:11.255Z,99326.88
2022-11-19T03:27:17.245Z,99336.19
2022-11-19T03:30:19.956Z,99345.44
2022-11-19T03:33:29.843Z,99356.34
2022-11-19T03:36:35.708Z,99348.69
2022-11-19T03:39:37.855Z,99363.88
2022-11-19T03:42:40.165Z,99349.81
2022-11-19T03:45:44.296Z,99344.84
2022-11-19T03:48:48.391Z,99348.00
2022-11-19T03:51:59.280Z,99318.34
2022-11-19T03:55:00.791Z,99352.50
2022-11-19T03:58:07.375Z,99351.03
2022-11-19T04:01:09.655Z,99373.59
2022-11-19T04:04:29.422Z,99386.56
2022-11-19T04:07:30.992Z,99392.84
2022-11-19T04:10:32.565Z,99398.06
2022-11-19T04:13:34.098Z,99396.50
2022-11-19T04:16:35.700Z,99400.50
2022-11-19T04:19:37.373Z,99404.56
2022-11-19T04:22:38.926Z,99408.00
2022-11-19T04:25:41.409Z,99408.72
2022-11-19T04:28:42.948Z,99413.97
2022-11-19T04:31:44.495Z,99433.75
2022-11-19T04:34:46.092Z,99445.56
2022-11-19T04:37:48.537Z,99450.09
2022-11-19T04:40:50.076Z,99459.03
2022-11-19T04:43:51.606Z,99455.72
2022-11-19T04:46:53.140Z,99464.84
2022-11-19T04:49:54.675Z,99476.88
2022-11-19T04:52:56.230Z,99487.78
2022-11-19T04:55:57.774Z,99489.00
2022-11-19T04:58:59.307Z,99493.81
2022-11-19T05:02:00.861Z,99506.63
2022-11-19T05:05:02.424Z,99504.84
2022-11-19T05:08:04.053Z,99517.19
2022-11-19T05:11:05.668Z,99532.84
2022-11-19T05:14:07.306Z,99533.94
2022-11-19T05:17:08.835Z,99535.66
2022-11-19T05:20:10.666Z,99547.78
2022-11-19T05:23:12.739Z,99543.56
2022-11-19T05:26:14.269Z,99544.97
2022-11-19T05:29:15.806Z,99544.66
2022-11-19T05:32:17.375Z,99551.56
2022-11-19T05:35:19.112Z,99552.47
2022-11-19T05:38:20.657Z,99550.94
2022-11-19T05:41:22.238Z,99542.03
2022-11-19T05:44:23.770Z,99562.25
2022-11-19T05:47:25.295Z,99564.28
2022-11-19T05:50:26.826Z,99570.12
2022-11-19T05:53:28.387Z,99568.25
2022-11-19T05:56:29.976Z,99576.69
2022-11-19T05:59:32.196Z,99568.97
2022-11-19T06:02:33.754Z,99575.69
2022-11-19T06:05:40.004Z,99585.62
2022-11-19T06:08:42.156Z,99603.28
2022-11-19T06:11:52.595Z,99603.72
2022-11-19T06:14:54.146Z,99601.09
2022-11-19T06:17:58.634Z,99606.09
2022-11-19T06:21:00.738Z,99593.31
2022-11-19T06:24:02.279Z,99610.81
2022-11-19T06:27:03.839Z,99628.16
2022-11-19T06:30:07.340Z,99633.75
2022-11-19T06:33:08.871Z,99638.28
2022-11-19T06:36:10.564Z,99637.25
2022-11-19T06:39:12.088Z,99599.72
2022-11-19T06:42:32.287Z,99632.50
2022-11-19T06:45:33.904Z,99643.63
2022-11-19T06:48:35.918Z,99647.78
2022-11-19T06:51:37.461Z,99615.25
2022-11-19T06:54:42.997Z,99645.97
2022-11-19T06:57:44.878Z,99668.38
2022-11-19T07:00:47.080Z,99663.16
2022-11-19T07:03:48.618Z,99667.72
2022-11-19T07:06:50.149Z,99646.12
2022-11-19T07:09:51.677Z,99673.19
2022-11-19T07:12:53.213Z,99674.34
2022-11-19T07:15:54.779Z,99683.41
2022-11-19T07:19:00.965Z,99683.13
2022-11-19T07:22:02.502Z,99685.84
2022-11-19T07:25:04.200Z,99688.63
2022-11-19T07:28:05.723Z,99682.91
2022-11-19T07:31:07.981Z,99690.81
2022-11-19T07:34:10.717Z,99652.19
2022-11-19T07:37:14.835Z,99693.72
2022-11-19T07:40:16.824Z,99700.66
2022-11-19T07:43:18.369Z,99717.25
2022-11-19T07:46:20.382Z,99720.00
2022-11-19T07:49:22.287Z,99722.81
2022-11-19T07:52:24.116Z,99717.09
2022-11-19T07:55:25.650Z,99710.59
2022-11-19T07:58:27.178Z,99646.38
2022-11-19T08:01:29.371Z,99682.06
2022-11-19T08:04:31.038Z,99683.03
2022-11-19T08:07:32.685Z,99690.88
2022-11-19T08:10:35.714Z,99698.38
2022-11-19T08:13:37.770Z,99681.31
2022-11-19T08:16:58.257Z,99670.03
2022-11-19T08:19:59.826Z,99708.72
2022-11-19T08:23:01.370Z,99722.69
2022-11-19T08:26:04.433Z,99738.06
2022-11-19T08:29:07.730Z,99747.75
2022-11-19T08:32:12.573Z,99747.78
2022-11-19T08:35:14.180Z,99751.38
2022-11-19T08:38:15.707Z,99754.28
2022-11-19T08:41:35.516Z,99747.09
2022-11-19T08:44:37.052Z,99745.09
2022-11-19T08:47:38.551Z,99754.81
2022-11-19T08:50:42.032Z,99761.97
2022-11-19T08:53:43.621Z,99765.03
2022-11-19T08:56:45.343Z,99771.34
2022-11-19T08:59:46.910Z,99784.31
2022-11-19T09:02:48.487Z,99794.22
2022-11-19T09:05:50.031Z,99786.44
2022-11-19T09:08:51.642Z,99797.84
2022-11-19T09:11:55.398Z,99799.91
2022-11-19T09:14:56.926Z,99793.16
2022-11-19T09:17:59.239Z,99803.28
2022-11-19T09:21:00.791Z,99817.16
2022-11-19T09:24:02.322Z,99829.72
2022-11-19T09:27:03.922Z,99846.59
2022-11-19T09:30:07.287Z,99852.84
2022-11-19T09:33:09.623Z,99856.69
2022-11-19T09:36:12.045Z,99838.63
2022-11-19T09:39:13.693Z,99803.63
2022-11-19T09:42:36.238Z,99828.31
2022-11-19T09:45:48.989Z,99819.44
2022-11-19T09:48:52.641Z,99818.47
2022-11-19T09:51:59.619Z,99809.13
2022-11-19T09:55:01.581Z,99817.03
2022-11-19T09:58:10.668Z,99822.09
2022-11-19T10:01:17.987Z,99832.78
2022-11-19T10:04:23.835Z,99834.59
2022-11-19T10:07:59.083Z,99846.41
2022-11-19T10:11:06.565Z,99843.41
2022-11-19T10:14:47.284Z,99844.72
2022-11-19T10:18:15.562Z,99834.78
2022-11-19T10:21:43.178Z,99843.28
2022-11-19T10:25:11.221Z,99836.53
2022-11-19T10:28:28.510Z,99834.50
2022-11-19T10:31:36.808Z,99798.75
2022-11-19T10:34:38.578Z,99819.97
2022-11-19T10:37:52.281Z,99813.50
2022-11-19T10:40:58.893Z,99810.22
2022-11-19T10:44:03.886Z,99814.69
2022-11-19T10:47:07.698Z,99819.41
2022-11-19T10:50:19.202Z,99807.47
2022-11-19T10:53:25.990Z,99824.69
2022-11-19T10:56:39.706Z,99800.22
2022-11-19T10:59:41.799Z,99827.53
2022-11-19T11:02:57.265Z,99837.66
2022-11-19T11:06:06.714Z,99833.75
2022-11-19T11:09:13.734Z,99834.84
2022-11-19T11:12:37.041Z,99841.06
2022-11-19T11:15:46.952Z,99857.38
2022-11-19T11:18:49.081Z,99861.56
2022-11-19T11:21:55.212Z,99826.06
2022-11-19T11:24:58.234Z,99825.31
2022-11-19T11:28:11.203Z,99869.44
2022-11-19T11:31:12.771Z,99868.00
2022-11-19T11:34:15.232Z,99878.41
2022-11-19T11:37:16.778Z,99887.03
2022-11-19T11:40:20.631Z,99874.62
2022-11-19T11:43:22.195Z,99865.72
2022-11-19T11:46:23.737Z,99861.53
2022-11-19T11:49:36.911Z,99862.41
2022-11-19T11:52:47.290Z,99856.63
2022-11-19T11:55:56.945Z,99858.78
2022-11-19T11:59:24.964Z,99851.50
2022-11-19T12:02:35.091Z,99867.47
2022-11-19T12:06:09.321Z,99863.44
2022-11-19T12:09:25.162Z,99859.66
2022-11-19T12:12:52.414Z,99861.94
2022-11-19T12:16:32.407Z,99861.00
2022-11-19T12:19:56.872Z,99862.78
2022-11-19T12:23:08.012Z,99859.00
2022-11-19T12:26:18.246Z,99859.94
2022-11-19T12:29:28.317Z,99859.16
2022-11-19T12:32:41.982Z,99853.38
2022-11-19T12:36:11.594Z,99845.97
2022-11-19T12:39:44.209Z,99850.94
2022-11-19T12:43:17.274Z,99852.78
2022-11-19T12:46:37.277Z,99848.13
2022-11-19T12:49:58.929Z,99834.72
2022-11-19T12:53:04.624Z,99834.25
2022-11-19T12:56:24.573Z,99841.84
2022-11-19T12:59:38.404Z,99844.31
2022-11-19T13:03:15.466Z,99845.78
2022-11-19T13:06:28.911Z,99850.88
2022-11-19T13:09:47.331Z,99850.63
2022-11-19T13:12:51.130Z,99845.97
2022-11-19T13:16:02.893Z,99857.19
2022-11-19T13:19:25.831Z,99852.91
2022-11-19T13:22:33.223Z,99849.53
2022-11-19T13:25:38.661Z,99851.00
2022-11-19T13:28:44.742Z,99860.84
2022-11-19T13:31:51.628Z,99852.00
2022-11-19T13:35:05.247Z,99853.94
2022-11-19T13:38:15.831Z,99873.66
2022-11-19T13:41:36.498Z,99880.06
2022-11-19T13:44:38.584Z,99877.34
2022-11-19T13:47:57.988Z,99881.56
2022-11-19T13:51:02.355Z,99893.16
2022-11-19T13:54:05.115Z,99896.03
2022-11-19T13:57:08.560Z,99895.69
2022-11-19T14:00:22.691Z,99899.09
2022-11-19T14:03:52.439Z,99903.41
2022-11-19T14:07:00.741Z,99909.19
2022-11-19T14:10:02.219Z,99901.03
2022-11-19T14:13:28.134Z,99902.16
2022-11-19T14:17:04.453Z,99899.59
2022-11-19T14:21:05.602Z,99894.44
2022-11-19T14:24:51.863Z,99883.34
2022-11-19T14:27:53.707Z,99881.53
2022-11-19T14:31:01.328Z,99886.25
2022-11-19T14:34:04.231Z,99884.91
2022-11-19T14:37:52.276Z,99885.47
2022-11-19T14:41:33.310Z,99890.19
2022-11-19T14:44:36.046Z,99891.59
2022-11-19T14:47:39.509Z,99813.50
2022-11-19T14:50:41.409Z,99886.47
2022-11-19T14:54:02.448Z,99893.94
2022-11-19T14:57:09.104Z,99910.31
2022-11-19T15:00:13.615Z,99914.12
2022-11-19T15:03:21.576Z,99920.53
2022-11-19T15:06:23.612Z,99915.59
2022-11-19T15:10:06.485Z,99931.41
2022-11-19T15:13:25.684Z,99947.22
2022-11-19T15:16:27.652Z,99941.13
2022-11-19T15:19:49.558Z,99934.38
2022-11-19T15:22:59.936Z,99935.28
2022-11-19T15:26:23.203Z,99936.00
2022-11-19T15:29:33.770Z,99931.00
2022-11-19T15:32:54.411Z,99945.66
2022-11-19T15:36:28.697Z,99952.56
2022-11-19T15:39:36.586Z,99954.38
2022-11-19T15:42:48.160Z,99950.22
2022-11-19T15:46:20.240Z,99939.66
2022-11-19T15:49:27.101Z,99936.94
2022-11-19T15:52:31.922Z,99936.78
2022-11-19T15:55:33.546Z,99950.72
2022-11-19T15:58:46.044Z,99952.12
2022-11-19T16:01:59.420Z,99935.03
2022-11-19T16:05:01.255Z,99934.88
2022-11-19T16:08:08.345Z,99933.91
2022-11-19T16:11:33.905Z,99945.09
2022-11-19T16:14:53.752Z,99945.91
2022-11-19T16:17:55.270Z,99936.06
2022-11-19T16:20:56.881Z,99948.47
2022-11-19T16:24:17.771Z,99881.72
2022-11-19T16:27:22.614Z,99912.69
2022-11-19T16:30:29.487Z,99960.72
2022-11-19T16:33:32.264Z,99947.47
2022-11-19T16:36:33.931Z,99970.37
2022-11-19T16:39:37.023Z,99975.34
2022-11-19T16:42:38.546Z,99980.47
2022-11-19T16:45:42.145Z,99987.63
2022-11-19T16:48:49.859Z,99991.88
2022-11-19T16:51:54.335Z,99996.81
2022-11-19T16:54:55.879Z,100006.78
2022-11-19T16:58:03.631Z,100005.47
2022-11-19T17:01:05.456Z,100003.53
2022-11-19T17:04:07.988Z,100016.34
2022-11-19T17:07:14.456Z,100021.88
2022-11-19T17:10:18.737Z,100019.16
2022-11-19T17:13:30.757Z,100015.94
2022-11-19T17:16:33.875Z,100013.03
2022-11-19T17:19:36.299Z,100010.81
2022-11-19T17:22:39.825Z,99998.72
2022-11-19T17:25:47.169Z,99998.22
2022-11-19T17:28:50.464Z,99993.69
2022-11-19T17:31:54.377Z,99981.50
2022-11-19T17:34:56.036Z,99990.06
2022-11-19T17:38:05.460Z,99994.00
2022-11-19T17:41:08.029Z,99993.50
2022-11-19T17:44:31.431Z,99998.12
2022-11-19T17:47:32.990Z,99995.53
2022-11-19T17:50:34.535Z,99987.78
2022-11-19T17:53:36.097Z,99995.50
2022-11-19T17:56:37.660Z,99984.22
2022-11-19T17:59:39.307Z,99981.50
2022-11-19T18:02:40.856Z,99987.44
2022-11-19T18:05:47.519Z,99994.31
2022-11-19T18:08:49.148Z,99987.06
2022-11-19T18:11:50.757Z,99978.09
2022-11-19T18:14:52.374Z,99985.13
2022-11-19T18:17:54.487Z,99979.06
2022-11-19T18:21:01.652Z,99988.38
2022-11-19T18:24:03.753Z,99989.56
2022-11-19T18:27:05.273Z,99985.03
2022-11-19T18:30:08.298Z,99971.84
2022-11-19T18:33:10.713Z,99968.34
2022-11-19T18:36:12.367Z,99891.22
2022-11-19T18:39:13.936Z,99965.03
2022-11-19T18:42:15.495Z,99971.19
2022-11-19T18:45:17.015Z,99979.22
2022-11-19T18:48:18.574Z,99977.53
2022-11-19T18:51:20.521Z,99976.22
2022-11-19T18:54:22.366Z,99958.19
2022-11-19T18:57:24.038Z,99967.84
2022-11-19T19:00:25.654Z,99968.69
2022-11-19T19:03:27.175Z,99975.50
2022-11-19T19:06:28.844Z,99976.91
2022-11-19T19:09:30.617Z,99969.38
2022-11-19T19:12:32.266Z,99969.87
2022-11-19T19:15:33.779Z,99973.97
2022-11-19T19:18:35.713Z,99961.31
2022-11-19T19:21:37.296Z,99924.53
2022-11-19T19:24:38.919Z,99968.03
2022-11-19T19:27:40.440Z,99969.56
2022-11-19T19:30:42.305Z,99950.53
2022-11-19T19:33:46.179Z,99988.25
2022-11-19T19:36:52.976Z,99979.91
2022-11-19T19:39:55.016Z,99977.50
2022-11-19T19:42:57.317Z,99978.28
2022-11-19T19:46:28.130Z,99977.19
2022-11-19T19:49:32.384Z,99977.19
2022-11-19T19:52:36.248Z,99972.59
2022-11-19T19:55:37.800Z,99837.34
2022-11-19T19:58:39.737Z,99981.81
2022-11-19T20:01:44.372Z,99992.69
2022-11-19T20:04:46.007Z,99995.69
2022-11-19T20:07:47.550Z,99992.16
2022-11-19T20:10:49.169Z,100001.94
2022-11-19T20:13:51.240Z,99992.69
2022-11-19T20:16:52.864Z,99999.41
2022-11-19T20:19:54.433Z,99955.19
2022-11-19T20:22:55.962Z,100022.84
2022-11-19T20:26:02.298Z,100020.94
2022-11-19T20:29:05.674Z,100017.09
2022-11-19T20:32:07.216Z,100025.84
2022-11-19T20:35:08.884Z,100029.34
2022-11-19T20:38:10.415Z,100014.69
2022-11-19T20:41:32.036Z,100007.63
2022-11-19T20:44:33.625Z,100017.72
2022-11-19T20:47:35.160Z,99939.31
2022-11-19T20:50:36.727Z,99988.63
2022-11-19T20:53:38.917Z,99999.59
2022-11-19T20:56:40.982Z,99993.34
2022-11-19T20:59:42.513Z,100008.81
2022-11-19T21:02:44.111Z,100025.12
2022-11-19T21:05:45.659Z,100031.66
2022-11-19T21:08:47.178Z,100031.94
2022-11-19T21:11:48.828Z,100021.38
2022-11-19T21:14:50.425Z,100027.63
2022-11-19T21:17:51.948Z,100012.44
2022-11-19T21:21:01.442Z,99991.53
2022-11-19T21:24:03.445Z,99975.81
2022-11-19T21:27:05.001Z,99993.44
2022-11-19T21:30:07.172Z,99991.31
2022-11-19T21:33:08.723Z,99988.63
2022-11-19T21:36:12.455Z,99982.06
2022-11-19T21:39:16.259Z,99982.31
2022-11-19T21:42:17.823Z,99980.69
2022-11-19T21:45:19.383Z,99971.94
2022-11-19T21:48:24.978Z,99959.97
2022-11-19T21:51:26.523Z,99964.59
2022-11-19T21:54:28.051Z,99956.44
2022-11-19T21:57:29.634Z,99955.37
2022-11-19T22:00:32.036Z,99942.31
2022-11-19T22:03:35.185Z,99952.34
2022-11-19T22:06:36.735Z,99936.38
2022-11-19T22:09:38.448Z,99936.56
2022-11-19T22:12:40.010Z,99933.06
2022-11-19T22:15:41.792Z,99935.25
2022-11-19T22:18:43.438Z,99929.62
2022-11-19T22:21:45.009Z,99913.34
2022-11-19T22:24:46.528Z,99890.53
2022-11-19T22:27:48.114Z,99880.78
2022-11-19T22:30:53.743Z,99911.53
2022-11-19T22:33:55.616Z,99908.59
2022-11-19T22:36:57.318Z,99910.88
2022-11-19T22:39:59.069Z,99929.06
2022-11-19T22:43:00.622Z,99920.44
2022-11-19T22:46:02.224Z,99899.34
2022-11-19T22:49:03.811Z,99907.75
2022-11-19T22:52:05.454Z,99878.78
2022-11-19T22:55:07.606Z,99885.78
2022-11-19T22:58:09.156Z,99885.66
2022-11-19T23:01:28.284Z,99847.56
2022-11-19T23:04:29.868Z,99881.13
2022-11-19T23:07:31.571Z,99888.69
2022-11-19T23:10:33.650Z,99898.22
2022-11-19T23:13:38.982Z,99900.94
2022-11-19T23:16:41.301Z,99886.28
2022-11-19T23:19:42.895Z,99899.22
2022-11-19T23:22:44.449Z,99896.81
2022-11-19T23:25:45.975Z,99883.34
2022-11-19T23:28:47.554Z,99870.28
2022-11-19T23:31:49.133Z,99855.69
2022-11-19T23:34:50.716Z,99859.16
2022-11-19T23:37:52.273Z,99851.91
2022-11-19T23:40:58.446Z,99855.19
2022-11-19T23:44:00.201Z,99845.47
2022-11-19T23:47:01.716Z,99847.69
2022-11-19T23:50:03.981Z,99862.94
2022-11-19T23:53:05.525Z,99851.41
2022-11-19T23:56:07.574Z,99859.03
2022-11-19T23:59:09.148Z,99854.53
